sensor_id;sensor_type;location;lat;lon;timestamp;P1;durP1;ratioP1;P2;durP2;ratioP2
5831;SDS011;50943;51.448;7.646;2023-06-04T00:02:02;4.67;;;2.23;;
5831;SDS011;50943;51.448;7.646;2023-06-04T00:04:28;3.53;;;1.90;;
5831;SDS011;50943;51.448;7.646;2023-06-04T00:06:55;3.80;;;2.20;;
5831;SDS011;50943;51.448;7.646;2023-06-04T00:09:22;2.63;;;1.63;;
5831;SDS011;50943;51.448;7.646;2023-06-04T00:11:48;3.30;;;1.93;;
5831;SDS011;50943;51.448;7.646;2023-06-04T00:14:15;4.90;;;2.30;;
5831;SDS011;50943;51.448;7.646;2023-06-04T00:16:42;2.40;;;2.00;;
5831;SDS011;50943;51.448;7.646;2023-06-04T00:19:10;3.13;;;2.03;;
5831;SDS011;50943;51.448;7.646;2023-06-04T00:21:36;2.60;;;1.80;;
5831;SDS011;50943;51.448;7.646;2023-06-04T00:24:03;2.97;;;2.10;;
5831;SDS011;50943;51.448;7.646;2023-06-04T00:26:30;3.80;;;1.93;;
5831;SDS011;50943;51.448;7.646;2023-06-04T00:28:57;4.93;;;2.80;;
5831;SDS011;50943;51.448;7.646;2023-06-04T00:31:23;3.07;;;2.10;;
5831;SDS011;50943;51.448;7.646;2023-06-04T00:33:50;4.10;;;2.50;;
5831;SDS011;50943;51.448;7.646;2023-06-04T00:36:19;3.50;;;2.40;;
5831;SDS011;50943;51.448;7.646;2023-06-04T00:38:45;4.43;;;2.50;;
5831;SDS011;50943;51.448;7.646;2023-06-04T00:41:12;5.40;;;2.53;;
5831;SDS011;50943;51.448;7.646;2023-06-04T00:43:38;3.67;;;2.50;;
5831;SDS011;50943;51.448;7.646;2023-06-04T00:46:05;5.77;;;2.20;;
5831;SDS011;50943;51.448;7.646;2023-06-04T00:48:32;3.93;;;2.37;;
5831;SDS011;50943;51.448;7.646;2023-06-04T00:50:59;5.67;;;2.73;;
5831;SDS011;50943;51.448;7.646;2023-06-04T00:53:27;5.30;;;2.43;;
5831;SDS011;50943;51.448;7.646;2023-06-04T00:55:54;4.90;;;2.27;;
5831;SDS011;50943;51.448;7.646;2023-06-04T00:58:20;5.03;;;2.73;;
5831;SDS011;50943;51.448;7.646;2023-06-04T01:00:49;4.67;;;2.70;;
5831;SDS011;50943;51.448;7.646;2023-06-04T01:03:18;6.43;;;2.57;;
5831;SDS011;50943;51.448;7.646;2023-06-04T01:05:48;3.70;;;2.30;;
5831;SDS011;50943;51.448;7.646;2023-06-04T01:08:18;6.00;;;2.90;;
5831;SDS011;50943;51.448;7.646;2023-06-04T01:10:51;6.27;;;2.63;;
5831;SDS011;50943;51.448;7.646;2023-06-04T01:13:18;3.90;;;2.43;;
5831;SDS011;50943;51.448;7.646;2023-06-04T01:15:45;6.23;;;2.60;;
5831;SDS011;50943;51.448;7.646;2023-06-04T01:18:11;3.63;;;2.20;;
5831;SDS011;50943;51.448;7.646;2023-06-04T01:20:49;7.53;;;2.50;;
5831;SDS011;50943;51.448;7.646;2023-06-04T01:23:19;7.50;;;2.77;;
5831;SDS011;50943;51.448;7.646;2023-06-04T01:26:00;6.13;;;2.60;;
5831;SDS011;50943;51.448;7.646;2023-06-04T01:28:28;4.77;;;2.43;;
5831;SDS011;50943;51.448;7.646;2023-06-04T01:30:55;5.77;;;2.67;;
5831;SDS011;50943;51.448;7.646;2023-06-04T01:33:25;4.40;;;2.63;;
5831;SDS011;50943;51.448;7.646;2023-06-04T01:35:51;4.73;;;2.60;;
5831;SDS011;50943;51.448;7.646;2023-06-04T01:38:18;10.13;;;3.73;;
5831;SDS011;50943;51.448;7.646;2023-06-04T01:40:45;3.87;;;2.50;;
5831;SDS011;50943;51.448;7.646;2023-06-04T01:43:13;3.30;;;2.00;;
5831;SDS011;50943;51.448;7.646;2023-06-04T01:45:40;6.20;;;2.90;;
5831;SDS011;50943;51.448;7.646;2023-06-04T01:48:06;4.23;;;2.87;;
5831;SDS011;50943;51.448;7.646;2023-06-04T01:50:33;8.00;;;2.13;;
5831;SDS011;50943;51.448;7.646;2023-06-04T01:52:59;4.20;;;2.67;;
5831;SDS011;50943;51.448;7.646;2023-06-04T01:55:26;6.47;;;2.63;;
5831;SDS011;50943;51.448;7.646;2023-06-04T01:57:54;4.77;;;2.67;;
5831;SDS011;50943;51.448;7.646;2023-06-04T02:00:22;4.20;;;2.60;;
5831;SDS011;50943;51.448;7.646;2023-06-04T02:02:49;3.73;;;2.23;;
5831;SDS011;50943;51.448;7.646;2023-06-04T02:05:16;5.67;;;2.27;;
5831;SDS011;50943;51.448;7.646;2023-06-04T02:07:44;4.07;;;2.30;;
5831;SDS011;50943;51.448;7.646;2023-06-04T02:10:13;3.57;;;2.33;;
5831;SDS011;50943;51.448;7.646;2023-06-04T02:12:51;3.07;;;2.30;;
5831;SDS011;50943;51.448;7.646;2023-06-04T02:15:19;5.47;;;3.03;;
5831;SDS011;50943;51.448;7.646;2023-06-04T02:17:48;5.60;;;2.47;;
5831;SDS011;50943;51.448;7.646;2023-06-04T02:20:15;3.70;;;2.40;;
5831;SDS011;50943;51.448;7.646;2023-06-04T02:22:44;5.00;;;2.70;;
5831;SDS011;50943;51.448;7.646;2023-06-04T02:25:11;7.53;;;2.50;;
5831;SDS011;50943;51.448;7.646;2023-06-04T02:27:38;5.30;;;2.70;;
5831;SDS011;50943;51.448;7.646;2023-06-04T02:30:05;4.40;;;2.50;;
5831;SDS011;50943;51.448;7.646;2023-06-04T02:32:32;4.57;;;2.60;;
5831;SDS011;50943;51.448;7.646;2023-06-04T02:35:02;4.20;;;2.83;;
5831;SDS011;50943;51.448;7.646;2023-06-04T02:37:29;6.17;;;2.30;;
5831;SDS011;50943;51.448;7.646;2023-06-04T02:39:56;4.63;;;2.33;;
5831;SDS011;50943;51.448;7.646;2023-06-04T02:42:23;5.03;;;3.00;;
5831;SDS011;50943;51.448;7.646;2023-06-04T02:44:49;3.33;;;2.13;;
5831;SDS011;50943;51.448;7.646;2023-06-04T02:47:16;3.43;;;2.67;;
5831;SDS011;50943;51.448;7.646;2023-06-04T02:49:44;8.00;;;2.77;;
5831;SDS011;50943;51.448;7.646;2023-06-04T02:52:12;5.20;;;2.67;;
5831;SDS011;50943;51.448;7.646;2023-06-04T02:54:38;4.20;;;2.50;;
5831;SDS011;50943;51.448;7.646;2023-06-04T02:57:05;3.50;;;2.40;;
5831;SDS011;50943;51.448;7.646;2023-06-04T02:59:33;4.37;;;2.47;;
5831;SDS011;50943;51.448;7.646;2023-06-04T03:02:00;7.37;;;2.77;;
5831;SDS011;50943;51.448;7.646;2023-06-04T03:04:27;6.27;;;2.57;;
5831;SDS011;50943;51.448;7.646;2023-06-04T03:06:59;3.40;;;2.50;;
5831;SDS011;50943;51.448;7.646;2023-06-04T03:09:27;3.43;;;2.40;;
5831;SDS011;50943;51.448;7.646;2023-06-04T03:11:54;4.00;;;2.10;;
5831;SDS011;50943;51.448;7.646;2023-06-04T03:14:20;3.80;;;2.40;;
5831;SDS011;50943;51.448;7.646;2023-06-04T03:16:48;2.87;;;2.17;;
5831;SDS011;50943;51.448;7.646;2023-06-04T03:19:17;4.83;;;2.53;;
5831;SDS011;50943;51.448;7.646;2023-06-04T03:21:44;5.47;;;2.40;;
5831;SDS011;50943;51.448;7.646;2023-06-04T03:24:10;6.47;;;2.50;;
5831;SDS011;50943;51.448;7.646;2023-06-04T03:26:39;3.67;;;2.50;;
5831;SDS011;50943;51.448;7.646;2023-06-04T03:29:05;4.00;;;2.77;;
5831;SDS011;50943;51.448;7.646;2023-06-04T03:31:32;5.90;;;2.37;;
5831;SDS011;50943;51.448;7.646;2023-06-04T03:33:59;4.67;;;3.00;;
5831;SDS011;50943;51.448;7.646;2023-06-04T03:36:25;3.77;;;2.40;;
5831;SDS011;50943;51.448;7.646;2023-06-04T03:38:56;4.90;;;2.47;;
5831;SDS011;50943;51.448;7.646;2023-06-04T03:41:23;4.50;;;2.57;;
5831;SDS011;50943;51.448;7.646;2023-06-04T03:43:52;5.77;;;2.07;;
5831;SDS011;50943;51.448;7.646;2023-06-04T03:46:19;4.27;;;2.43;;
5831;SDS011;50943;51.448;7.646;2023-06-04T03:48:45;3.80;;;2.53;;
5831;SDS011;50943;51.448;7.646;2023-06-04T03:51:12;6.53;;;3.30;;
5831;SDS011;50943;51.448;7.646;2023-06-04T03:53:39;5.87;;;3.37;;
5831;SDS011;50943;51.448;7.646;2023-06-04T03:56:05;6.93;;;3.33;;
5831;SDS011;50943;51.448;7.646;2023-06-04T03:58:32;4.20;;;3.07;;
5831;SDS011;50943;51.448;7.646;2023-06-04T04:01:02;7.90;;;4.07;;
5831;SDS011;50943;51.448;7.646;2023-06-04T04:03:33;4.77;;;3.30;;
5831;SDS011;50943;51.448;7.646;2023-06-04T04:06:00;4.70;;;3.00;;
5831;SDS011;50943;51.448;7.646;2023-06-04T04:08:27;4.70;;;3.17;;
5831;SDS011;50943;51.448;7.646;2023-06-04T04:10:56;7.10;;;3.13;;
5831;SDS011;50943;51.448;7.646;2023-06-04T04:13:23;5.67;;;2.80;;
5831;SDS011;50943;51.448;7.646;2023-06-04T04:15:49;6.20;;;3.00;;
5831;SDS011;50943;51.448;7.646;2023-06-04T04:18:18;5.03;;;2.90;;
5831;SDS011;50943;51.448;7.646;2023-06-04T04:20:46;4.37;;;2.80;;
5831;SDS011;50943;51.448;7.646;2023-06-04T04:23:12;5.80;;;3.20;;
5831;SDS011;50943;51.448;7.646;2023-06-04T04:25:39;4.43;;;3.10;;
5831;SDS011;50943;51.448;7.646;2023-06-04T04:28:06;7.23;;;4.03;;
5831;SDS011;50943;51.448;7.646;2023-06-04T04:30:33;5.30;;;3.40;;
5831;SDS011;50943;51.448;7.646;2023-06-04T04:33:00;8.43;;;4.03;;
5831;SDS011;50943;51.448;7.646;2023-06-04T04:35:28;6.20;;;3.50;;
5831;SDS011;50943;51.448;7.646;2023-06-04T04:37:57;5.23;;;3.83;;
5831;SDS011;50943;51.448;7.646;2023-06-04T04:40:24;7.20;;;4.20;;
5831;SDS011;50943;51.448;7.646;2023-06-04T04:42:51;7.13;;;4.57;;
5831;SDS011;50943;51.448;7.646;2023-06-04T04:45:17;16.33;;;6.00;;
5831;SDS011;50943;51.448;7.646;2023-06-04T04:47:44;10.77;;;6.53;;
5831;SDS011;50943;51.448;7.646;2023-06-04T04:50:11;10.60;;;6.50;;
5831;SDS011;50943;51.448;7.646;2023-06-04T04:52:39;10.67;;;6.60;;
5831;SDS011;50943;51.448;7.646;2023-06-04T04:55:06;8.43;;;5.97;;
5831;SDS011;50943;51.448;7.646;2023-06-04T04:57:34;17.83;;;6.27;;
5831;SDS011;50943;51.448;7.646;2023-06-04T05:00:01;15.67;;;6.03;;
5831;SDS011;50943;51.448;7.646;2023-06-04T05:02:29;9.03;;;5.93;;
5831;SDS011;50943;51.448;7.646;2023-06-04T05:04:55;9.07;;;6.23;;
5831;SDS011;50943;51.448;7.646;2023-06-04T05:07:22;9.30;;;6.63;;
5831;SDS011;50943;51.448;7.646;2023-06-04T05:09:51;11.13;;;6.57;;
5831;SDS011;50943;51.448;7.646;2023-06-04T05:12:18;8.20;;;6.17;;
5831;SDS011;50943;51.448;7.646;2023-06-04T05:14:45;6.80;;;4.50;;
5831;SDS011;50943;51.448;7.646;2023-06-04T05:17:12;6.77;;;4.50;;
5831;SDS011;50943;51.448;7.646;2023-06-04T05:19:41;5.53;;;4.30;;
5831;SDS011;50943;51.448;7.646;2023-06-04T05:22:08;5.40;;;4.00;;
5831;SDS011;50943;51.448;7.646;2023-06-04T05:24:34;22.33;;;5.30;;
5831;SDS011;50943;51.448;7.646;2023-06-04T05:27:03;5.17;;;3.87;;
5831;SDS011;50943;51.448;7.646;2023-06-04T05:29:29;7.10;;;4.43;;
5831;SDS011;50943;51.448;7.646;2023-06-04T05:31:56;6.17;;;3.80;;
5831;SDS011;50943;51.448;7.646;2023-06-04T05:34:23;8.00;;;4.30;;
5831;SDS011;50943;51.448;7.646;2023-06-04T05:36:49;5.27;;;3.60;;
5831;SDS011;50943;51.448;7.646;2023-06-04T05:39:17;7.73;;;4.07;;
5831;SDS011;50943;51.448;7.646;2023-06-04T05:41:44;7.73;;;4.90;;
5831;SDS011;50943;51.448;7.646;2023-06-04T05:44:12;7.60;;;3.83;;
5831;SDS011;50943;51.448;7.646;2023-06-04T05:46:39;5.13;;;3.10;;
5831;SDS011;50943;51.448;7.646;2023-06-04T05:49:06;8.80;;;3.80;;
5831;SDS011;50943;51.448;7.646;2023-06-04T05:51:33;5.90;;;3.70;;
5831;SDS011;50943;51.448;7.646;2023-06-04T05:54:01;5.60;;;3.93;;
5831;SDS011;50943;51.448;7.646;2023-06-04T05:56:28;5.90;;;3.30;;
5831;SDS011;50943;51.448;7.646;2023-06-04T05:58:54;5.63;;;3.13;;
5831;SDS011;50943;51.448;7.646;2023-06-04T06:01:22;5.47;;;3.60;;
5831;SDS011;50943;51.448;7.646;2023-06-04T06:03:49;8.07;;;3.80;;
5831;SDS011;50943;51.448;7.646;2023-06-04T06:06:16;5.63;;;3.50;;
5831;SDS011;50943;51.448;7.646;2023-06-04T06:08:43;8.70;;;3.80;;
5831;SDS011;50943;51.448;7.646;2023-06-04T06:11:10;10.70;;;4.20;;
5831;SDS011;50943;51.448;7.646;2023-06-04T06:13:37;5.40;;;3.60;;
5831;SDS011;50943;51.448;7.646;2023-06-04T06:16:03;6.47;;;3.30;;
5831;SDS011;50943;51.448;7.646;2023-06-04T06:18:32;5.03;;;3.30;;
5831;SDS011;50943;51.448;7.646;2023-06-04T06:20:58;5.97;;;3.37;;
5831;SDS011;50943;51.448;7.646;2023-06-04T06:23:25;12.33;;;3.00;;
5831;SDS011;50943;51.448;7.646;2023-06-04T06:25:53;6.10;;;3.00;;
5831;SDS011;50943;51.448;7.646;2023-06-04T06:28:20;5.10;;;3.97;;
5831;SDS011;50943;51.448;7.646;2023-06-04T06:30:47;4.70;;;3.80;;
5831;SDS011;50943;51.448;7.646;2023-06-04T06:33:14;4.13;;;2.80;;
5831;SDS011;50943;51.448;7.646;2023-06-04T06:35:42;9.63;;;3.70;;
5831;SDS011;50943;51.448;7.646;2023-06-04T06:38:11;5.27;;;3.30;;
5831;SDS011;50943;51.448;7.646;2023-06-04T06:40:38;4.60;;;3.27;;
5831;SDS011;50943;51.448;7.646;2023-06-04T06:43:04;5.83;;;2.83;;
5831;SDS011;50943;51.448;7.646;2023-06-04T06:45:31;4.03;;;2.90;;
5831;SDS011;50943;51.448;7.646;2023-06-04T06:47:58;9.00;;;2.67;;
5831;SDS011;50943;51.448;7.646;2023-06-04T06:50:24;4.47;;;2.83;;
5831;SDS011;50943;51.448;7.646;2023-06-04T06:52:52;4.30;;;2.80;;
5831;SDS011;50943;51.448;7.646;2023-06-04T06:55:19;4.20;;;3.13;;
5831;SDS011;50943;51.448;7.646;2023-06-04T06:57:46;5.93;;;2.97;;
5831;SDS011;50943;51.448;7.646;2023-06-04T07:00:12;5.50;;;2.83;;
5831;SDS011;50943;51.448;7.646;2023-06-04T07:02:40;6.13;;;2.60;;
5831;SDS011;50943;51.448;7.646;2023-06-04T07:05:07;3.17;;;2.50;;
5831;SDS011;50943;51.448;7.646;2023-06-04T07:07:34;3.40;;;2.90;;
5831;SDS011;50943;51.448;7.646;2023-06-04T07:10:03;3.27;;;2.60;;
5831;SDS011;50943;51.448;7.646;2023-06-04T07:12:30;7.17;;;2.57;;
5831;SDS011;50943;51.448;7.646;2023-06-04T07:14:57;3.50;;;2.57;;
5831;SDS011;50943;51.448;7.646;2023-06-04T07:17:23;4.33;;;2.27;;
5831;SDS011;50943;51.448;7.646;2023-06-04T07:19:50;5.60;;;2.40;;
5831;SDS011;50943;51.448;7.646;2023-06-04T07:22:16;3.00;;;2.37;;
5831;SDS011;50943;51.448;7.646;2023-06-04T07:24:45;5.10;;;2.90;;
5831;SDS011;50943;51.448;7.646;2023-06-04T07:27:14;3.30;;;2.33;;
5831;SDS011;50943;51.448;7.646;2023-06-04T07:29:42;4.03;;;2.17;;
5831;SDS011;50943;51.448;7.646;2023-06-04T07:32:10;3.20;;;2.40;;
5831;SDS011;50943;51.448;7.646;2023-06-04T07:34:37;2.93;;;2.20;;
5831;SDS011;50943;51.448;7.646;2023-06-04T07:37:04;3.03;;;2.73;;
5831;SDS011;50943;51.448;7.646;2023-06-04T07:39:31;7.20;;;2.47;;
5831;SDS011;50943;51.448;7.646;2023-06-04T07:41:57;3.20;;;2.40;;
5831;SDS011;50943;51.448;7.646;2023-06-04T07:44:25;3.70;;;2.60;;
5831;SDS011;50943;51.448;7.646;2023-06-04T07:46:55;6.10;;;3.00;;
5831;SDS011;50943;51.448;7.646;2023-06-04T07:49:22;4.00;;;2.70;;
5831;SDS011;50943;51.448;7.646;2023-06-04T07:51:49;3.33;;;2.60;;
5831;SDS011;50943;51.448;7.646;2023-06-04T07:54:16;6.77;;;2.67;;
5831;SDS011;50943;51.448;7.646;2023-06-04T07:56:42;2.57;;;2.10;;
5831;SDS011;50943;51.448;7.646;2023-06-04T07:59:10;2.80;;;1.90;;
5831;SDS011;50943;51.448;7.646;2023-06-04T08:01:37;3.70;;;2.10;;
5831;SDS011;50943;51.448;7.646;2023-06-04T08:04:04;3.87;;;2.27;;
5831;SDS011;50943;51.448;7.646;2023-06-04T08:06:32;2.43;;;1.70;;
5831;SDS011;50943;51.448;7.646;2023-06-04T08:08:58;2.83;;;2.47;;
5831;SDS011;50943;51.448;7.646;2023-06-04T08:11:25;2.23;;;2.00;;
5831;SDS011;50943;51.448;7.646;2023-06-04T08:13:51;3.60;;;2.20;;
5831;SDS011;50943;51.448;7.646;2023-06-04T08:16:19;5.53;;;2.00;;
5831;SDS011;50943;51.448;7.646;2023-06-04T08:18:47;2.33;;;2.07;;
5831;SDS011;50943;51.448;7.646;2023-06-04T08:21:14;3.90;;;1.93;;
5831;SDS011;50943;51.448;7.646;2023-06-04T08:23:51;3.37;;;2.00;;
5831;SDS011;50943;51.448;7.646;2023-06-04T08:26:18;2.90;;;2.10;;
5831;SDS011;50943;51.448;7.646;2023-06-04T08:28:47;3.50;;;2.30;;
5831;SDS011;50943;51.448;7.646;2023-06-04T08:31:13;5.87;;;2.13;;
5831;SDS011;50943;51.448;7.646;2023-06-04T08:33:41;2.43;;;2.03;;
5831;SDS011;50943;51.448;7.646;2023-06-04T08:36:09;6.83;;;3.00;;
5831;SDS011;50943;51.448;7.646;2023-06-04T08:38:36;2.47;;;1.83;;
5831;SDS011;50943;51.448;7.646;2023-06-04T08:41:06;2.87;;;2.00;;
5831;SDS011;50943;51.448;7.646;2023-06-04T08:43:36;2.50;;;2.07;;
5831;SDS011;50943;51.448;7.646;2023-06-04T08:46:04;3.30;;;2.00;;
5831;SDS011;50943;51.448;7.646;2023-06-04T08:48:33;2.90;;;2.30;;
5831;SDS011;50943;51.448;7.646;2023-06-04T08:51:01;5.10;;;2.17;;
5831;SDS011;50943;51.448;7.646;2023-06-04T08:53:30;5.50;;;2.00;;
5831;SDS011;50943;51.448;7.646;2023-06-04T08:55:57;2.93;;;2.33;;
5831;SDS011;50943;51.448;7.646;2023-06-04T08:58:24;3.03;;;2.53;;
5831;SDS011;50943;51.448;7.646;2023-06-04T09:00:54;3.00;;;2.47;;
5831;SDS011;50943;51.448;7.646;2023-06-04T09:03:21;3.60;;;2.23;;
5831;SDS011;50943;51.448;7.646;2023-06-04T09:05:49;3.30;;;2.20;;
5831;SDS011;50943;51.448;7.646;2023-06-04T09:08:16;3.30;;;2.40;;
5831;SDS011;50943;51.448;7.646;2023-06-04T09:10:45;4.07;;;2.23;;
5831;SDS011;50943;51.448;7.646;2023-06-04T09:13:14;4.27;;;2.40;;
5831;SDS011;50943;51.448;7.646;2023-06-04T09:15:41;2.90;;;2.20;;
5831;SDS011;50943;51.448;7.646;2023-06-04T09:18:08;2.83;;;2.27;;
5831;SDS011;50943;51.448;7.646;2023-06-04T09:20:35;3.53;;;2.40;;
5831;SDS011;50943;51.448;7.646;2023-06-04T09:23:12;6.10;;;2.37;;
5831;SDS011;50943;51.448;7.646;2023-06-04T09:25:41;6.03;;;2.50;;
5831;SDS011;50943;51.448;7.646;2023-06-04T09:28:10;6.67;;;4.37;;
5831;SDS011;50943;51.448;7.646;2023-06-04T09:30:36;3.53;;;2.37;;
5831;SDS011;50943;51.448;7.646;2023-06-04T09:33:06;6.87;;;2.30;;
5831;SDS011;50943;51.448;7.646;2023-06-04T09:35:33;8.67;;;2.70;;
5831;SDS011;50943;51.448;7.646;2023-06-04T09:38:00;2.87;;;2.20;;
5831;SDS011;50943;51.448;7.646;2023-06-04T09:40:34;3.27;;;2.40;;
5831;SDS011;50943;51.448;7.646;2023-06-04T09:43:01;4.00;;;2.93;;
5831;SDS011;50943;51.448;7.646;2023-06-04T09:45:30;2.57;;;2.00;;
5831;SDS011;50943;51.448;7.646;2023-06-04T09:47:57;3.20;;;2.27;;
5831;SDS011;50943;51.448;7.646;2023-06-04T09:50:27;5.77;;;2.20;;
5831;SDS011;50943;51.448;7.646;2023-06-04T09:52:56;6.97;;;2.90;;
5831;SDS011;50943;51.448;7.646;2023-06-04T09:55:23;4.83;;;2.40;;
5831;SDS011;50943;51.448;7.646;2023-06-04T09:57:50;11.03;;;2.53;;
5831;SDS011;50943;51.448;7.646;2023-06-04T10:00:18;6.87;;;2.40;;
5831;SDS011;50943;51.448;7.646;2023-06-04T10:02:49;4.30;;;2.33;;
5831;SDS011;50943;51.448;7.646;2023-06-04T10:05:16;6.40;;;2.47;;
5831;SDS011;50943;51.448;7.646;2023-06-04T10:07:46;6.07;;;2.67;;
5831;SDS011;50943;51.448;7.646;2023-06-04T10:10:15;3.13;;;2.30;;
5831;SDS011;50943;51.448;7.646;2023-06-04T10:12:43;2.83;;;2.10;;
5831;SDS011;50943;51.448;7.646;2023-06-04T10:15:12;4.93;;;2.37;;
5831;SDS011;50943;51.448;7.646;2023-06-04T10:17:39;2.20;;;1.80;;
5831;SDS011;50943;51.448;7.646;2023-06-04T10:20:08;2.87;;;2.03;;
5831;SDS011;50943;51.448;7.646;2023-06-04T10:22:36;4.60;;;2.20;;
5831;SDS011;50943;51.448;7.646;2023-06-04T10:25:04;3.00;;;2.00;;
5831;SDS011;50943;51.448;7.646;2023-06-04T10:27:31;2.97;;;1.70;;
5831;SDS011;50943;51.448;7.646;2023-06-04T10:30:00;2.93;;;2.03;;
5831;SDS011;50943;51.448;7.646;2023-06-04T10:32:27;3.07;;;2.37;;
5831;SDS011;50943;51.448;7.646;2023-06-04T10:34:54;4.57;;;2.03;;
5831;SDS011;50943;51.448;7.646;2023-06-04T10:37:24;3.30;;;1.80;;
5831;SDS011;50943;51.448;7.646;2023-06-04T10:39:51;3.93;;;1.90;;
5831;SDS011;50943;51.448;7.646;2023-06-04T10:42:19;3.97;;;2.00;;
5831;SDS011;50943;51.448;7.646;2023-06-04T10:44:47;3.30;;;1.57;;
5831;SDS011;50943;51.448;7.646;2023-06-04T10:47:18;3.03;;;1.80;;
5831;SDS011;50943;51.448;7.646;2023-06-04T10:49:45;2.17;;;1.97;;
5831;SDS011;50943;51.448;7.646;2023-06-04T10:52:14;2.40;;;1.77;;
5831;SDS011;50943;51.448;7.646;2023-06-04T10:54:42;10.40;;;2.53;;
5831;SDS011;50943;51.448;7.646;2023-06-04T10:57:12;2.87;;;1.90;;
5831;SDS011;50943;51.448;7.646;2023-06-04T10:59:39;2.77;;;2.17;;
5831;SDS011;50943;51.448;7.646;2023-06-04T11:02:06;3.30;;;1.97;;
5831;SDS011;50943;51.448;7.646;2023-06-04T11:04:33;2.73;;;1.83;;
5831;SDS011;50943;51.448;7.646;2023-06-04T11:07:00;4.53;;;1.90;;
5831;SDS011;50943;51.448;7.646;2023-06-04T11:09:28;3.40;;;1.70;;
5831;SDS011;50943;51.448;7.646;2023-06-04T11:11:58;2.47;;;1.60;;
5831;SDS011;50943;51.448;7.646;2023-06-04T11:14:24;3.60;;;2.10;;
5831;SDS011;50943;51.448;7.646;2023-06-04T11:16:52;2.20;;;1.50;;
5831;SDS011;50943;51.448;7.646;2023-06-04T11:19:18;5.50;;;1.63;;
5831;SDS011;50943;51.448;7.646;2023-06-04T11:21:45;2.57;;;1.80;;
5831;SDS011;50943;51.448;7.646;2023-06-04T11:24:12;4.20;;;2.00;;
5831;SDS011;50943;51.448;7.646;2023-06-04T11:26:39;2.70;;;1.70;;
5831;SDS011;50943;51.448;7.646;2023-06-04T11:29:07;3.10;;;2.00;;
5831;SDS011;50943;51.448;7.646;2023-06-04T11:31:46;8.00;;;2.00;;
5831;SDS011;50943;51.448;7.646;2023-06-04T11:34:21;4.13;;;1.80;;
5831;SDS011;50943;51.448;7.646;2023-06-04T11:36:49;2.43;;;1.63;;
5831;SDS011;50943;51.448;7.646;2023-06-04T11:39:18;5.53;;;1.50;;
5831;SDS011;50943;51.448;7.646;2023-06-04T11:41:44;6.43;;;1.60;;
5831;SDS011;50943;51.448;7.646;2023-06-04T11:44:13;3.47;;;1.60;;
5831;SDS011;50943;51.448;7.646;2023-06-04T11:46:40;2.57;;;1.57;;
5831;SDS011;50943;51.448;7.646;2023-06-04T11:49:11;2.20;;;1.50;;
5831;SDS011;50943;51.448;7.646;2023-06-04T11:51:45;5.30;;;1.63;;
5831;SDS011;50943;51.448;7.646;2023-06-04T11:54:12;2.50;;;1.73;;
5831;SDS011;50943;51.448;7.646;2023-06-04T11:56:39;2.83;;;1.77;;
5831;SDS011;50943;51.448;7.646;2023-06-04T11:59:06;2.20;;;1.33;;
5831;SDS011;50943;51.448;7.646;2023-06-04T12:01:38;3.73;;;1.77;;
5831;SDS011;50943;51.448;7.646;2023-06-04T12:04:11;3.47;;;1.70;;
5831;SDS011;50943;51.448;7.646;2023-06-04T12:06:39;3.50;;;1.60;;
5831;SDS011;50943;51.448;7.646;2023-06-04T12:09:19;2.00;;;1.80;;
5831;SDS011;50943;51.448;7.646;2023-06-04T12:11:47;3.13;;;1.60;;
5831;SDS011;50943;51.448;7.646;2023-06-04T12:14:15;4.50;;;1.70;;
5831;SDS011;50943;51.448;7.646;2023-06-04T12:16:44;4.73;;;1.93;;
5831;SDS011;50943;51.448;7.646;2023-06-04T12:19:20;4.17;;;1.70;;
5831;SDS011;50943;51.448;7.646;2023-06-04T12:21:47;2.10;;;1.90;;
5831;SDS011;50943;51.448;7.646;2023-06-04T12:24:14;10.50;;;1.60;;
5831;SDS011;50943;51.448;7.646;2023-06-04T12:26:41;3.43;;;1.77;;
5831;SDS011;50943;51.448;7.646;2023-06-04T12:29:09;1.60;;;1.50;;
5831;SDS011;50943;51.448;7.646;2023-06-04T12:31:37;2.17;;;1.43;;
5831;SDS011;50943;51.448;7.646;2023-06-04T12:34:06;6.50;;;1.50;;
5831;SDS011;50943;51.448;7.646;2023-06-04T12:36:33;2.90;;;1.57;;
5831;SDS011;50943;51.448;7.646;2023-06-04T12:39:01;2.30;;;1.40;;
5831;SDS011;50943;51.448;7.646;2023-06-04T12:41:28;2.93;;;1.57;;
5831;SDS011;50943;51.448;7.646;2023-06-04T12:43:55;5.00;;;1.80;;
5831;SDS011;50943;51.448;7.646;2023-06-04T12:46:22;2.23;;;1.67;;
5831;SDS011;50943;51.448;7.646;2023-06-04T12:48:50;3.43;;;1.70;;
5831;SDS011;50943;51.448;7.646;2023-06-04T12:51:18;3.30;;;1.30;;
5831;SDS011;50943;51.448;7.646;2023-06-04T12:53:45;2.57;;;1.50;;
5831;SDS011;50943;51.448;7.646;2023-06-04T12:56:12;2.90;;;1.60;;
5831;SDS011;50943;51.448;7.646;2023-06-04T12:58:39;4.83;;;1.53;;
5831;SDS011;50943;51.448;7.646;2023-06-04T13:01:06;5.00;;;1.67;;
5831;SDS011;50943;51.448;7.646;2023-06-04T13:03:33;1.43;;;1.33;;
5831;SDS011;50943;51.448;7.646;2023-06-04T13:06:02;3.30;;;1.50;;
5831;SDS011;50943;51.448;7.646;2023-06-04T13:08:30;2.20;;;1.43;;
5831;SDS011;50943;51.448;7.646;2023-06-04T13:10:57;4.93;;;1.80;;
5831;SDS011;50943;51.448;7.646;2023-06-04T13:13:24;2.40;;;1.90;;
5831;SDS011;50943;51.448;7.646;2023-06-04T13:15:54;4.50;;;1.30;;
5831;SDS011;50943;51.448;7.646;2023-06-04T13:18:20;2.80;;;1.43;;
5831;SDS011;50943;51.448;7.646;2023-06-04T13:20:47;2.87;;;1.70;;
5831;SDS011;50943;51.448;7.646;2023-06-04T13:23:15;4.00;;;1.70;;
5831;SDS011;50943;51.448;7.646;2023-06-04T13:25:43;3.13;;;1.60;;
5831;SDS011;50943;51.448;7.646;2023-06-04T13:28:10;2.20;;;1.50;;
5831;SDS011;50943;51.448;7.646;2023-06-04T13:30:37;3.23;;;2.00;;
5831;SDS011;50943;51.448;7.646;2023-06-04T13:33:03;1.80;;;1.60;;
5831;SDS011;50943;51.448;7.646;2023-06-04T13:35:30;1.70;;;1.50;;
5831;SDS011;50943;51.448;7.646;2023-06-04T13:37:57;2.20;;;1.80;;
5831;SDS011;50943;51.448;7.646;2023-06-04T13:40:24;1.87;;;1.47;;
5831;SDS011;50943;51.448;7.646;2023-06-04T13:42:52;2.20;;;1.53;;
5831;SDS011;50943;51.448;7.646;2023-06-04T13:45:19;3.03;;;1.40;;
5831;SDS011;50943;51.448;7.646;2023-06-04T13:47:46;2.03;;;1.50;;
5831;SDS011;50943;51.448;7.646;2023-06-04T13:50:13;2.10;;;1.50;;
5831;SDS011;50943;51.448;7.646;2023-06-04T13:52:39;1.70;;;1.50;;
5831;SDS011;50943;51.448;7.646;2023-06-04T13:55:07;4.13;;;1.70;;
5831;SDS011;50943;51.448;7.646;2023-06-04T13:57:34;2.70;;;1.50;;
5831;SDS011;50943;51.448;7.646;2023-06-04T14:00:02;1.80;;;1.40;;
5831;SDS011;50943;51.448;7.646;2023-06-04T14:02:31;6.67;;;1.80;;
5831;SDS011;50943;51.448;7.646;2023-06-04T14:04:58;6.33;;;1.87;;
5831;SDS011;50943;51.448;7.646;2023-06-04T14:07:24;2.60;;;1.60;;
5831;SDS011;50943;51.448;7.646;2023-06-04T14:09:51;5.93;;;1.47;;
5831;SDS011;50943;51.448;7.646;2023-06-04T14:12:20;4.70;;;1.80;;
5831;SDS011;50943;51.448;7.646;2023-06-04T14:14:46;5.60;;;1.50;;
5831;SDS011;50943;51.448;7.646;2023-06-04T14:17:15;2.30;;;1.40;;
5831;SDS011;50943;51.448;7.646;2023-06-04T14:19:42;2.07;;;1.50;;
5831;SDS011;50943;51.448;7.646;2023-06-04T14:22:10;2.40;;;1.73;;
5831;SDS011;50943;51.448;7.646;2023-06-04T14:24:40;2.70;;;2.10;;
5831;SDS011;50943;51.448;7.646;2023-06-04T14:27:08;2.73;;;1.60;;
5831;SDS011;50943;51.448;7.646;2023-06-04T14:29:35;4.03;;;1.77;;
5831;SDS011;50943;51.448;7.646;2023-06-04T14:32:02;4.30;;;1.83;;
5831;SDS011;50943;51.448;7.646;2023-06-04T14:34:31;6.00;;;1.90;;
5831;SDS011;50943;51.448;7.646;2023-06-04T14:36:58;3.00;;;1.90;;
5831;SDS011;50943;51.448;7.646;2023-06-04T14:39:25;2.17;;;1.60;;
5831;SDS011;50943;51.448;7.646;2023-06-04T14:41:52;2.07;;;1.60;;
5831;SDS011;50943;51.448;7.646;2023-06-04T14:44:18;2.10;;;1.70;;
5831;SDS011;50943;51.448;7.646;2023-06-04T14:46:48;3.13;;;1.97;;
5831;SDS011;50943;51.448;7.646;2023-06-04T14:49:15;3.90;;;1.90;;
5831;SDS011;50943;51.448;7.646;2023-06-04T14:51:44;2.23;;;1.60;;
5831;SDS011;50943;51.448;7.646;2023-06-04T14:54:11;3.30;;;2.03;;
5831;SDS011;50943;51.448;7.646;2023-06-04T14:56:41;2.50;;;1.77;;
5831;SDS011;50943;51.448;7.646;2023-06-04T14:59:09;2.70;;;1.93;;
5831;SDS011;50943;51.448;7.646;2023-06-04T15:01:37;3.10;;;1.97;;
5831;SDS011;50943;51.448;7.646;2023-06-04T15:04:05;4.10;;;1.90;;